createdAt,value
2019-03-16T00:02:01.300Z,34.47
2019-03-16T00:04:29.686Z,34.14
2019-03-16T00:06:58.079Z,34.39
2019-03-16T00:09:26.472Z,34.32
2019-03-16T00:11:54.985Z,34.17
2019-03-16T00:14:23.526Z,34.25
2019-03-16T00:16:51.918Z,34.46
2019-03-16T00:19:20.314Z,34.28
2019-03-16T00:21:48.696Z,34.19
2019-03-16T00:24:17.158Z,34.38
2019-03-16T00:26:45.566Z,34.27
2019-03-16T00:29:13.989Z,34.43
2019-03-16T00:31:42.345Z,34.36
2019-03-16T00:34:10.738Z,34.42
2019-03-16T00:36:39.119Z,34.42
2019-03-16T00:39:08.779Z,34.40
2019-03-16T00:41:37.189Z,34.41
2019-03-16T00:44:05.621Z,34.21
2019-03-16T00:46:34.076Z,34.07
2019-03-16T00:49:02.501Z,34.27
2019-03-16T00:51:30.897Z,34.40
2019-03-16T00:53:59.324Z,34.27
2019-03-16T00:56:27.719Z,34.19
2019-03-16T00:58:56.208Z,34.12
2019-03-16T01:01:24.592Z,34.00
2019-03-16T01:03:53.016Z,34.09
2019-03-16T01:06:21.405Z,33.92
2019-03-16T01:08:49.854Z,34.12
2019-03-16T01:11:18.264Z,34.12
2019-03-16T01:13:46.657Z,33.68
2019-03-16T01:16:15.044Z,33.67
2019-03-16T01:18:43.432Z,33.65
2019-03-16T01:21:11.820Z,33.61
2019-03-16T01:23:40.290Z,33.73
2019-03-16T01:26:08.775Z,33.75
2019-03-16T01:28:37.263Z,33.93
2019-03-16T01:31:05.652Z,33.73
2019-03-16T01:33:34.046Z,33.74
2019-03-16T01:36:02.443Z,33.93
2019-03-16T01:38:30.911Z,33.60
2019-03-16T01:40:59.305Z,33.55
2019-03-16T01:43:27.682Z,33.55
2019-03-16T01:45:56.061Z,33.46
2019-03-16T01:48:24.453Z,33.67
2019-03-16T01:50:52.847Z,33.51
2019-03-16T01:53:21.232Z,33.55
2019-03-16T01:55:49.617Z,33.32
2019-03-16T01:58:18.017Z,33.35
2019-03-16T02:00:46.420Z,33.40
2019-03-16T02:03:16.296Z,33.50
2019-03-16T02:05:44.786Z,33.33
2019-03-16T02:08:13.171Z,33.44
2019-03-16T02:10:41.566Z,33.29
2019-03-16T02:13:09.988Z,33.23
2019-03-16T02:15:38.449Z,33.55
2019-03-16T02:18:06.856Z,33.20
2019-03-16T02:20:35.328Z,33.47
2019-03-16T02:23:03.744Z,33.60
2019-03-16T02:25:32.132Z,33.34
2019-03-16T02:28:00.515Z,33.31
2019-03-16T02:30:29.093Z,33.49
2019-03-16T02:33:11.646Z,33.37
2019-03-16T02:35:27.610Z,33.28
2019-03-16T02:37:55.995Z,33.51
2019-03-16T02:40:24.441Z,33.56
2019-03-16T02:42:52.828Z,33.17
2019-03-16T02:45:21.242Z,33.43
2019-03-16T02:47:49.634Z,33.18
2019-03-16T02:50:18.028Z,33.48
2019-03-16T02:52:49.857Z,33.27
2019-03-16T02:55:16.534Z,33.72
2019-03-16T02:57:44.922Z,33.50
2019-03-16T03:00:14.047Z,33.33
2019-03-16T03:02:42.461Z,33.55
2019-03-16T03:05:10.830Z,33.44
2019-03-16T03:07:39.220Z,33.48
2019-03-16T03:10:15.534Z,33.70
2019-03-16T03:12:43.939Z,33.42
2019-03-16T03:15:13.950Z,33.42
2019-03-16T03:17:42.362Z,33.62
2019-03-16T03:20:11.027Z,33.78
2019-03-16T03:22:39.404Z,33.64
2019-03-16T03:25:07.852Z,33.34
2019-03-16T03:27:36.293Z,33.63
2019-03-16T03:30:07.886Z,33.35
2019-03-16T03:32:36.359Z,33.54
2019-03-16T03:35:06.275Z,33.86
2019-03-16T03:37:34.710Z,33.43
2019-03-16T03:40:03.303Z,33.34
2019-03-16T03:42:31.691Z,33.78
2019-03-16T03:45:00.349Z,33.77
2019-03-16T03:47:28.763Z,33.33
2019-03-16T03:49:57.179Z,32.80
2019-03-16T03:52:25.570Z,33.27
2019-03-16T03:54:54.002Z,33.70
2019-03-16T03:57:22.399Z,33.61
2019-03-16T03:59:50.842Z,33.58
2019-03-16T04:02:19.211Z,33.37
2019-03-16T04:04:47.639Z,33.24
2019-03-16T04:07:19.876Z,33.16
2019-03-16T04:09:46.140Z,33.32
2019-03-16T04:12:14.527Z,33.46
2019-03-16T04:14:42.917Z,33.69
2019-03-16T04:17:11.315Z,33.68
2019-03-16T04:19:39.719Z,33.79
2019-03-16T04:22:08.107Z,33.64
2019-03-16T04:24:36.493Z,33.73
2019-03-16T04:27:16.065Z,34.00
2019-03-16T04:29:35.107Z,33.99
2019-03-16T04:32:03.495Z,33.92
2019-03-16T04:34:31.885Z,33.92
2019-03-16T04:37:00.278Z,34.00
2019-03-16T04:39:28.664Z,34.04
2019-03-16T04:41:57.055Z,34.08
2019-03-16T04:44:25.453Z,34.08
2019-03-16T04:46:53.859Z,34.10
2019-03-16T04:49:22.345Z,34.26
2019-03-16T04:51:50.724Z,34.19
2019-03-16T04:54:19.199Z,34.24
2019-03-16T04:56:47.610Z,34.36
2019-03-16T04:59:16.015Z,34.31
2019-03-16T05:01:44.497Z,34.22
2019-03-16T05:04:12.905Z,34.23
2019-03-16T05:06:41.298Z,34.28
2019-03-16T05:09:09.717Z,34.27
2019-03-16T05:11:38.101Z,34.28
2019-03-16T05:14:06.524Z,34.26
2019-03-16T05:16:34.916Z,34.34
2019-03-16T05:19:03.351Z,34.27
2019-03-16T05:21:31.752Z,34.25
2019-03-16T05:24:02.778Z,34.44
2019-03-16T05:26:30.247Z,34.50
2019-03-16T05:28:58.632Z,34.46
2019-03-16T05:31:27.020Z,34.42
2019-03-16T05:33:55.444Z,34.44
2019-03-16T05:36:23.908Z,34.65
2019-03-16T05:38:52.334Z,34.70
2019-03-16T05:41:20.731Z,34.66
2019-03-16T05:43:49.122Z,34.67
2019-03-16T05:46:17.514Z,34.71
2019-03-16T05:48:45.904Z,34.82
2019-03-16T05:51:14.360Z,34.66
2019-03-16T05:53:42.748Z,34.69
2019-03-16T05:56:11.140Z,34.60
2019-03-16T05:58:39.526Z,34.65
2019-03-16T06:01:07.920Z,34.79
2019-03-16T06:03:36.299Z,34.65
2019-03-16T06:06:04.726Z,34.65
2019-03-16T06:08:33.086Z,34.61
2019-03-16T06:11:01.542Z,34.50
2019-03-16T06:13:29.930Z,34.38
2019-03-16T06:15:58.455Z,34.61
2019-03-16T06:18:26.835Z,34.57
2019-03-16T06:20:55.317Z,34.47
2019-03-16T06:23:23.788Z,34.21
2019-03-16T06:25:52.212Z,34.57
2019-03-16T06:28:20.596Z,34.54
2019-03-16T06:30:49.020Z,34.28
2019-03-16T06:33:17.408Z,34.37
2019-03-16T06:35:45.805Z,34.42
2019-03-16T06:38:14.195Z,34.35
2019-03-16T06:40:42.627Z,34.43
2019-03-16T06:43:11.011Z,34.37
2019-03-16T06:45:39.498Z,34.41
2019-03-16T06:48:07.897Z,34.38
2019-03-16T06:50:36.360Z,34.35
2019-03-16T06:53:04.756Z,34.27
2019-03-16T06:55:33.279Z,34.33
2019-03-16T06:58:01.635Z,34.11
2019-03-16T07:00:31.688Z,34.24
2019-03-16T07:03:00.080Z,34.33
2019-03-16T07:05:38.218Z,34.39
2019-03-16T07:07:58.611Z,34.19
2019-03-16T07:10:27.039Z,34.20
2019-03-16T07:12:55.425Z,34.20
2019-03-16T07:15:23.834Z,34.37
2019-03-16T07:17:52.227Z,34.23
2019-03-16T07:20:20.626Z,34.21
2019-03-16T07:22:49.013Z,33.96
2019-03-16T07:25:17.411Z,34.17
2019-03-16T07:27:45.795Z,34.21
2019-03-16T07:30:14.823Z,34.29
2019-03-16T07:32:43.217Z,34.08
2019-03-16T07:35:11.604Z,34.30
2019-03-16T07:37:40.001Z,34.14
2019-03-16T07:40:11.714Z,34.13
2019-03-16T07:42:40.105Z,34.31
2019-03-16T07:45:12.545Z,34.18
2019-03-16T07:47:40.937Z,34.18
2019-03-16T07:50:13.615Z,34.02
2019-03-16T07:52:43.646Z,34.01
2019-03-16T07:55:12.068Z,34.05
2019-03-16T07:57:41.097Z,34.09
2019-03-16T08:00:11.333Z,34.08
2019-03-16T08:02:39.719Z,33.97
2019-03-16T08:05:18.045Z,34.00
2019-03-16T08:07:38.295Z,33.76
2019-03-16T08:10:09.327Z,34.10
2019-03-16T08:12:37.723Z,34.01
2019-03-16T08:15:07.952Z,34.01
2019-03-16T08:17:36.444Z,33.70
2019-03-16T08:20:06.583Z,33.50
2019-03-16T08:22:34.967Z,33.33
2019-03-16T08:25:03.361Z,33.35
2019-03-16T08:27:31.744Z,33.22
2019-03-16T08:30:00.131Z,33.23
2019-03-16T08:32:28.557Z,33.29
2019-03-16T08:35:00.138Z,33.41
2019-03-16T08:37:29.580Z,33.33
2019-03-16T08:39:57.270Z,33.38
2019-03-16T08:42:25.691Z,33.46
2019-03-16T08:44:54.125Z,33.50
2019-03-16T08:47:22.542Z,33.38
2019-03-16T08:49:50.934Z,33.38
2019-03-16T08:52:19.383Z,33.34
2019-03-16T08:54:47.774Z,33.29
2019-03-16T08:57:16.162Z,33.26
2019-03-16T08:59:44.570Z,33.33
2019-03-16T09:02:12.956Z,33.27
2019-03-16T09:04:41.528Z,33.23
2019-03-16T09:07:11.973Z,33.23
2019-03-16T09:09:40.446Z,33.10
2019-03-16T09:12:08.867Z,33.26
2019-03-16T09:14:37.282Z,33.14
2019-03-16T09:17:08.773Z,33.13
2019-03-16T09:19:35.837Z,33.17
2019-03-16T09:22:04.268Z,33.22
2019-03-16T09:24:32.656Z,33.21
2019-03-16T09:27:01.064Z,33.05
2019-03-16T09:29:29.454Z,33.24
2019-03-16T09:31:57.862Z,33.66
2019-03-16T09:34:26.256Z,33.72
2019-03-16T09:36:54.672Z,33.62
2019-03-16T09:39:23.067Z,33.76
2019-03-16T09:41:51.589Z,33.83
2019-03-16T09:44:19.990Z,33.82
2019-03-16T09:46:48.510Z,33.78
2019-03-16T09:49:16.902Z,34.10
2019-03-16T09:51:47.020Z,34.12
2019-03-16T09:54:15.428Z,34.14
2019-03-16T09:56:46.220Z,34.25
2019-03-16T09:59:14.607Z,34.35
2019-03-16T10:01:43.995Z,34.35
2019-03-16T10:04:12.447Z,34.37
2019-03-16T10:06:40.838Z,34.24
2019-03-16T10:09:09.313Z,34.42
2019-03-16T10:11:37.702Z,34.56
2019-03-16T10:14:06.092Z,34.35
2019-03-16T10:16:34.588Z,34.55
2019-03-16T10:19:02.973Z,34.53
2019-03-16T10:21:31.391Z,34.51
2019-03-16T10:23:59.775Z,34.51
2019-03-16T10:26:28.176Z,34.61
2019-03-16T10:28:56.557Z,34.36
2019-03-16T10:31:24.991Z,34.33
2019-03-16T10:33:53.495Z,34.35
2019-03-16T10:36:21.908Z,34.43
2019-03-16T10:38:50.288Z,34.29
2019-03-16T10:41:18.716Z,34.20
2019-03-16T10:43:47.111Z,34.09
2019-03-16T10:46:15.515Z,34.06
2019-03-16T10:48:43.907Z,34.04
2019-03-16T10:51:12.547Z,34.03
2019-03-16T10:53:41.131Z,34.05
2019-03-16T10:56:09.589Z,34.09
2019-03-16T10:58:38.005Z,33.93
2019-03-16T11:01:06.480Z,34.04
2019-03-16T11:03:34.954Z,33.79
2019-03-16T11:06:03.342Z,33.92
2019-03-16T11:08:31.734Z,33.77
2019-03-16T11:11:00.125Z,33.71
2019-03-16T11:13:28.667Z,33.65
2019-03-16T11:15:57.018Z,33.65
2019-03-16T11:18:25.418Z,33.56
2019-03-16T11:20:54.129Z,33.60
2019-03-16T11:23:22.521Z,33.55
2019-03-16T11:25:50.908Z,33.61
2019-03-16T11:28:19.307Z,33.46
2019-03-16T11:30:47.770Z,33.45
2019-03-16T11:33:17.802Z,33.41
2019-03-16T11:35:46.190Z,33.43
2019-03-16T11:38:14.581Z,33.31
2019-03-16T11:40:42.971Z,33.21
2019-03-16T11:43:11.415Z,33.11
2019-03-16T11:45:39.799Z,33.29
2019-03-16T11:48:08.271Z,33.15
2019-03-16T11:50:36.661Z,33.10
2019-03-16T11:53:05.054Z,33.04
2019-03-16T11:55:33.458Z,32.84
2019-03-16T11:58:04.564Z,32.25
2019-03-16T12:00:32.958Z,32.04
2019-03-16T12:03:01.450Z,31.96
2019-03-16T12:05:29.845Z,31.80
2019-03-16T12:07:58.259Z,31.58
2019-03-16T12:10:26.649Z,31.57
2019-03-16T12:12:55.074Z,31.59
2019-03-16T12:15:23.454Z,31.69
2019-03-16T12:17:51.889Z,31.86
2019-03-16T12:20:20.272Z,31.95
2019-03-16T12:22:48.706Z,31.25
2019-03-16T12:25:17.113Z,30.47
2019-03-16T12:27:45.537Z,30.38
2019-03-16T12:30:15.401Z,30.36
2019-03-16T12:32:45.359Z,30.51
2019-03-16T12:35:13.745Z,30.69
2019-03-16T12:37:42.163Z,30.84
2019-03-16T12:40:15.190Z,30.79
2019-03-16T12:42:43.586Z,30.72
2019-03-16T12:45:20.047Z,30.76
2019-03-16T12:47:47.074Z,30.69
2019-03-16T12:50:15.468Z,30.74
2019-03-16T12:52:44.038Z,30.69
2019-03-16T12:55:12.962Z,30.75
2019-03-16T12:57:41.395Z,30.87
2019-03-16T13:00:21.993Z,30.78
2019-03-16T13:02:50.426Z,30.77
2019-03-16T13:05:18.810Z,30.92
2019-03-16T13:07:47.200Z,31.12
2019-03-16T13:10:16.937Z,31.24
2019-03-16T13:12:45.343Z,31.32
2019-03-16T13:15:13.799Z,31.44
2019-03-16T13:17:42.202Z,31.49
2019-03-16T13:20:15.189Z,31.55
2019-03-16T13:22:43.575Z,31.60
2019-03-16T13:25:12.205Z,31.66
2019-03-16T13:27:40.622Z,31.61
2019-03-16T13:30:14.224Z,31.45
2019-03-16T13:32:42.672Z,31.32
2019-03-16T13:35:11.047Z,31.35
2019-03-16T13:37:39.462Z,31.46
2019-03-16T13:40:11.106Z,31.46
2019-03-16T13:42:39.546Z,31.55
2019-03-16T13:45:09.174Z,31.53
2019-03-16T13:47:37.586Z,31.55
2019-03-16T13:50:14.310Z,31.50
2019-03-16T13:52:42.976Z,31.46
2019-03-16T13:55:11.382Z,31.45
2019-03-16T13:57:39.806Z,31.46
2019-03-16T14:00:12.466Z,31.47
2019-03-16T14:02:41.228Z,31.56
2019-03-16T14:05:09.612Z,31.58
2019-03-16T14:07:38.497Z,31.57
2019-03-16T14:10:10.221Z,31.50
2019-03-16T14:12:38.651Z,31.50
2019-03-16T14:15:07.977Z,31.52
2019-03-16T14:17:36.586Z,31.46
2019-03-16T14:20:07.688Z,31.45
2019-03-16T14:22:37.842Z,31.46
2019-03-16T14:25:08.676Z,31.35
2019-03-16T14:27:37.124Z,31.48
2019-03-16T14:30:34.887Z,31.59
2019-03-16T14:32:47.253Z,31.73
2019-03-16T14:35:15.650Z,31.78
2019-03-16T14:37:44.067Z,31.80
2019-03-16T14:40:13.677Z,31.84
2019-03-16T14:42:42.134Z,31.87
2019-03-16T14:45:12.350Z,31.95
2019-03-16T14:47:40.778Z,31.99
2019-03-16T14:50:12.542Z,32.06
2019-03-16T14:52:41.162Z,32.13
2019-03-16T14:55:09.565Z,32.18
2019-03-16T14:57:37.964Z,32.26
2019-03-16T15:00:09.928Z,32.28
2019-03-16T15:02:38.332Z,32.34
2019-03-16T15:05:07.380Z,32.34
2019-03-16T15:07:35.864Z,32.35
2019-03-16T15:10:07.108Z,32.38
2019-03-16T15:12:35.576Z,32.35
2019-03-16T15:15:12.481Z,32.32
2019-03-16T15:17:40.919Z,32.33
2019-03-16T15:20:10.530Z,32.27
2019-03-16T15:22:38.982Z,32.17
2019-03-16T15:25:11.738Z,31.89
2019-03-16T15:27:40.238Z,31.67
2019-03-16T15:30:14.753Z,31.47
2019-03-16T15:32:43.142Z,31.46
2019-03-16T15:35:11.680Z,31.25
2019-03-16T15:37:40.102Z,31.06
2019-03-16T15:40:12.776Z,30.71
2019-03-16T15:42:41.183Z,30.38
2019-03-16T15:45:21.338Z,30.27
2019-03-16T15:47:49.743Z,30.10
2019-03-16T15:50:18.149Z,29.85
2019-03-16T15:52:46.648Z,29.74
2019-03-16T15:55:15.110Z,29.57
2019-03-16T15:57:43.515Z,29.50
2019-03-16T16:00:14.818Z,29.42
2019-03-16T16:02:43.210Z,29.32
2019-03-16T16:05:11.673Z,29.26
2019-03-16T16:07:40.076Z,29.17
2019-03-16T16:10:17.618Z,29.08
2019-03-16T16:12:46.062Z,28.99
2019-03-16T16:15:14.485Z,28.94
2019-03-16T16:17:42.884Z,28.88
2019-03-16T16:20:13.655Z,28.80
2019-03-16T16:22:42.139Z,28.76
2019-03-16T16:25:13.801Z,28.67
2019-03-16T16:27:42.214Z,28.70
2019-03-16T16:30:18.992Z,28.67
2019-03-16T16:32:47.404Z,28.66
2019-03-16T16:35:16.363Z,28.64
2019-03-16T16:37:44.795Z,28.66
2019-03-16T16:40:17.337Z,28.59
2019-03-16T16:42:45.711Z,28.60
2019-03-16T16:45:17.175Z,28.58
2019-03-16T16:47:45.566Z,28.58
2019-03-16T16:50:15.804Z,28.51
2019-03-16T16:52:44.295Z,29.06
2019-03-16T16:55:12.708Z,29.39
2019-03-16T16:57:41.131Z,29.74
2019-03-16T17:00:12.537Z,29.87
2019-03-16T17:02:40.936Z,30.23
2019-03-16T17:05:09.332Z,30.36
2019-03-16T17:07:37.831Z,30.45
2019-03-16T17:10:12.071Z,30.49
2019-03-16T17:12:40.547Z,30.62
2019-03-16T17:15:12.066Z,30.58
2019-03-16T17:17:40.547Z,30.64
2019-03-16T17:20:13.458Z,30.71
2019-03-16T17:22:41.849Z,30.73
2019-03-16T17:25:11.679Z,30.83
2019-03-16T17:27:40.072Z,30.88
2019-03-16T17:30:17.016Z,30.99
2019-03-16T17:32:45.413Z,31.11
2019-03-16T17:35:13.898Z,31.19
2019-03-16T17:37:42.307Z,31.27
2019-03-16T17:40:12.722Z,31.34
2019-03-16T17:42:41.148Z,31.37
2019-03-16T17:45:13.507Z,31.56
2019-03-16T17:47:41.917Z,31.59
2019-03-16T17:50:11.664Z,31.72
2019-03-16T17:52:40.088Z,31.75
2019-03-16T17:55:13.204Z,31.85
2019-03-16T17:57:44.900Z,32.03
2019-03-16T18:00:16.965Z,32.02
2019-03-16T18:02:51.914Z,32.05
2019-03-16T18:05:15.750Z,32.18
2019-03-16T18:07:44.323Z,32.22
2019-03-16T18:10:13.792Z,32.38
2019-03-16T18:12:42.276Z,32.45
2019-03-16T18:15:15.718Z,32.61
2019-03-16T18:17:44.122Z,32.61
2019-03-16T18:20:17.132Z,32.77
2019-03-16T18:22:44.386Z,32.81
2019-03-16T18:25:13.510Z,32.94
2019-03-16T18:27:41.906Z,32.99
2019-03-16T18:30:21.459Z,33.01
2019-03-16T18:32:49.868Z,32.99
2019-03-16T18:35:18.400Z,33.01
2019-03-16T18:37:46.888Z,33.29
2019-03-16T18:40:16.156Z,33.68
2019-03-16T18:42:44.624Z,33.71
2019-03-16T18:45:25.071Z,33.53
2019-03-16T18:47:53.543Z,33.56
2019-03-16T18:50:22.018Z,33.41
2019-03-16T18:52:50.434Z,33.47
2019-03-16T18:55:18.843Z,33.41
2019-03-16T18:57:47.264Z,34.07
2019-03-16T19:00:19.311Z,34.03
2019-03-16T19:02:47.835Z,34.09
2019-03-16T19:05:16.466Z,34.22
2019-03-16T19:07:44.874Z,34.16
2019-03-16T19:10:17.310Z,34.26
2019-03-16T19:12:45.719Z,34.31
2019-03-16T19:15:15.372Z,34.23
2019-03-16T19:17:43.843Z,33.93
2019-03-16T19:20:16.205Z,33.99
2019-03-16T19:22:45.846Z,33.90
2019-03-16T19:25:19.739Z,33.90
2019-03-16T19:27:48.157Z,33.69
2019-03-16T19:30:17.351Z,34.18
2019-03-16T19:32:45.758Z,34.20
2019-03-16T19:35:14.185Z,34.32
2019-03-16T19:37:42.606Z,34.37
2019-03-16T19:40:15.573Z,34.43
2019-03-16T19:42:46.471Z,34.38
2019-03-16T19:45:14.277Z,34.42
2019-03-16T19:47:42.715Z,34.54
2019-03-16T19:50:13.463Z,34.81
2019-03-16T19:52:41.895Z,34.80
2019-03-16T19:55:11.561Z,34.85
2019-03-16T19:57:40.052Z,34.82
2019-03-16T20:00:16.384Z,34.89
2019-03-16T20:02:50.316Z,34.96
2019-03-16T20:05:15.035Z,34.95
2019-03-16T20:07:43.446Z,34.98
2019-03-16T20:10:14.680Z,35.24
2019-03-16T20:12:43.083Z,35.38
2019-03-16T20:15:12.860Z,35.52
2019-03-16T20:17:41.269Z,35.44
2019-03-16T20:20:13.865Z,35.38
2019-03-16T20:22:42.329Z,35.32
2019-03-16T20:25:11.050Z,35.38
2019-03-16T20:27:39.452Z,35.33
2019-03-16T20:30:25.914Z,35.20
2019-03-16T20:32:50.219Z,35.18
2019-03-16T20:35:17.141Z,35.17
2019-03-16T20:37:45.556Z,35.22
2019-03-16T20:40:17.204Z,35.21
2019-03-16T20:42:45.605Z,35.26
2019-03-16T20:45:14.196Z,35.20
2019-03-16T20:47:42.810Z,35.05
2019-03-16T20:50:15.631Z,34.94
2019-03-16T20:52:44.035Z,34.84
2019-03-16T20:55:12.477Z,34.80
2019-03-16T20:57:40.889Z,34.90
2019-03-16T21:00:16.621Z,34.97
2019-03-16T21:02:45.020Z,35.08
2019-03-16T21:05:13.440Z,35.01
2019-03-16T21:07:41.908Z,34.80
2019-03-16T21:10:11.563Z,34.91
2019-03-16T21:12:40.535Z,34.96
2019-03-16T21:15:11.136Z,35.07
2019-03-16T21:17:39.531Z,34.99
2019-03-16T21:20:13.204Z,35.21
2019-03-16T21:22:41.586Z,35.22
2019-03-16T21:25:11.637Z,35.11
2019-03-16T21:27:40.040Z,35.15
2019-03-16T21:30:11.693Z,35.26
2019-03-16T21:32:40.088Z,34.82
2019-03-16T21:35:08.554Z,35.24
2019-03-16T21:37:36.957Z,35.30
2019-03-16T21:40:07.878Z,35.22
2019-03-16T21:42:36.283Z,35.05
2019-03-16T21:45:06.100Z,35.09
2019-03-16T21:47:34.488Z,35.42
2019-03-16T21:50:02.947Z,35.19
2019-03-16T21:52:31.346Z,35.40
2019-03-16T21:54:59.734Z,35.29
2019-03-16T21:57:28.271Z,35.44
2019-03-16T21:59:56.798Z,35.42
2019-03-16T22:02:25.189Z,35.51
2019-03-16T22:04:53.679Z,35.53
2019-03-16T22:07:22.066Z,35.55
2019-03-16T22:09:50.460Z,35.66
2019-03-16T22:12:18.849Z,35.56
2019-03-16T22:14:47.276Z,35.63
2019-03-16T22:17:15.666Z,35.62
2019-03-16T22:19:44.058Z,35.68
2019-03-16T22:22:12.458Z,35.68
2019-03-16T22:24:40.845Z,35.75
2019-03-16T22:27:09.268Z,35.76
2019-03-16T22:29:37.646Z,35.79
2019-03-16T22:32:06.078Z,35.78
2019-03-16T22:34:34.459Z,35.77
2019-03-16T22:37:02.868Z,35.73
2019-03-16T22:39:31.319Z,35.82
2019-03-16T22:41:59.734Z,35.82
2019-03-16T22:44:28.128Z,35.85
2019-03-16T22:46:56.548Z,35.81
2019-03-16T22:49:24.938Z,35.84
2019-03-16T22:51:53.362Z,35.89
2019-03-16T22:54:21.750Z,35.89
2019-03-16T22:56:50.157Z,35.90
2019-03-16T22:59:18.552Z,35.97
2019-03-16T23:01:47.075Z,35.99
2019-03-16T23:04:15.456Z,35.97
2019-03-16T23:06:44.140Z,36.00
2019-03-16T23:09:12.532Z,36.02
2019-03-16T23:11:40.949Z,36.06
2019-03-16T23:14:09.346Z,36.04
2019-03-16T23:16:37.764Z,36.01
2019-03-16T23:19:06.148Z,36.05
2019-03-16T23:21:34.895Z,36.04
2019-03-16T23:24:03.281Z,36.13
2019-03-16T23:26:38.314Z,36.20
2019-03-16T23:29:01.794Z,36.20
2019-03-16T23:31:30.217Z,36.25
2019-03-16T23:33:58.664Z,36.17
2019-03-16T23:36:27.052Z,36.21
2019-03-16T23:38:55.436Z,36.27
2019-03-16T23:41:23.828Z,36.23
2019-03-16T23:43:52.220Z,36.21
2019-03-16T23:46:20.700Z,36.30
2019-03-16T23:48:49.098Z,36.28
2019-03-16T23:51:17.508Z,36.26
2019-03-16T23:53:45.905Z,36.32
2019-03-16T23:56:14.318Z,36.30
2019-03-16T23:58:42.765Z,36.28
